sensor_id;sensor_type;location;lat;lon;timestamp;P1;durP1;ratioP1;P2;durP2;ratioP2
68944;SDS011;55984;48.790;8.990;2023-04-25T00:04:27;6.53;;;3.00;;
68944;SDS011;55984;48.790;8.990;2023-04-25T00:06:56;5.97;;;3.57;;
68944;SDS011;55984;48.790;8.990;2023-04-25T00:11:58;5.87;;;3.67;;
68944;SDS011;55984;48.790;8.990;2023-04-25T00:14:24;6.57;;;3.70;;
68944;SDS011;55984;48.790;8.990;2023-04-25T00:16:50;6.17;;;3.20;;
68944;SDS011;55984;48.790;8.990;2023-04-25T00:19:16;5.00;;;3.43;;
68944;SDS011;55984;48.790;8.990;2023-04-25T00:21:42;6.40;;;3.73;;
68944;SDS011;55984;48.790;8.990;2023-04-25T00:24:11;9.83;;;3.57;;
68944;SDS011;55984;48.790;8.990;2023-04-25T00:26:40;5.73;;;3.40;;
68944;SDS011;55984;48.790;8.990;2023-04-25T00:29:06;8.67;;;3.90;;
68944;SDS011;55984;48.790;8.990;2023-04-25T00:31:32;7.13;;;3.60;;
68944;SDS011;55984;48.790;8.990;2023-04-25T00:33:58;6.73;;;3.50;;
68944;SDS011;55984;48.790;8.990;2023-04-25T00:36:24;8.00;;;4.23;;
68944;SDS011;55984;48.790;8.990;2023-04-25T00:38:50;6.40;;;4.13;;
68944;SDS011;55984;48.790;8.990;2023-04-25T00:41:16;6.57;;;3.90;;
68944;SDS011;55984;48.790;8.990;2023-04-25T00:43:43;7.53;;;4.13;;
68944;SDS011;55984;48.790;8.990;2023-04-25T00:46:10;5.10;;;3.50;;
68944;SDS011;55984;48.790;8.990;2023-04-25T00:48:36;6.90;;;4.03;;
68944;SDS011;55984;48.790;8.990;2023-04-25T00:51:02;9.67;;;4.07;;
68944;SDS011;55984;48.790;8.990;2023-04-25T00:53:28;8.17;;;4.07;;
68944;SDS011;55984;48.790;8.990;2023-04-25T00:55:57;9.20;;;4.10;;
68944;SDS011;55984;48.790;8.990;2023-04-25T00:58:23;10.37;;;4.10;;
68944;SDS011;55984;48.790;8.990;2023-04-25T01:00:49;6.93;;;4.23;;
68944;SDS011;55984;48.790;8.990;2023-04-25T01:03:17;9.27;;;4.50;;
68944;SDS011;55984;48.790;8.990;2023-04-25T01:05:47;7.83;;;4.40;;
68944;SDS011;55984;48.790;8.990;2023-04-25T01:08:13;9.30;;;4.60;;
68944;SDS011;55984;48.790;8.990;2023-04-25T01:10:39;13.90;;;4.97;;
68944;SDS011;55984;48.790;8.990;2023-04-25T01:13:06;7.23;;;4.60;;
68944;SDS011;55984;48.790;8.990;2023-04-25T01:15:32;10.10;;;4.50;;
68944;SDS011;55984;48.790;8.990;2023-04-25T01:17:58;8.60;;;4.67;;
68944;SDS011;55984;48.790;8.990;2023-04-25T01:20:26;8.13;;;4.50;;
68944;SDS011;55984;48.790;8.990;2023-04-25T01:22:53;7.30;;;4.30;;
68944;SDS011;55984;48.790;8.990;2023-04-25T01:25:22;7.57;;;4.40;;
68944;SDS011;55984;48.790;8.990;2023-04-25T01:27:48;7.57;;;4.23;;
68944;SDS011;55984;48.790;8.990;2023-04-25T01:30:14;7.30;;;4.60;;
68944;SDS011;55984;48.790;8.990;2023-04-25T01:32:41;8.80;;;4.70;;
68944;SDS011;55984;48.790;8.990;2023-04-25T01:35:09;6.33;;;4.23;;
68944;SDS011;55984;48.790;8.990;2023-04-25T01:37:40;10.63;;;5.10;;
68944;SDS011;55984;48.790;8.990;2023-04-25T01:40:07;7.97;;;4.47;;
68944;SDS011;55984;48.790;8.990;2023-04-25T01:42:36;8.73;;;5.07;;
68944;SDS011;55984;48.790;8.990;2023-04-25T01:45:04;11.30;;;4.47;;
68944;SDS011;55984;48.790;8.990;2023-04-25T01:47:31;8.83;;;4.80;;
68944;SDS011;55984;48.790;8.990;2023-04-25T01:49:59;9.40;;;4.80;;
68944;SDS011;55984;48.790;8.990;2023-04-25T01:52:26;7.10;;;4.20;;
68944;SDS011;55984;48.790;8.990;2023-04-25T01:54:52;9.63;;;5.10;;
68944;SDS011;55984;48.790;8.990;2023-04-25T01:57:20;11.27;;;4.70;;
68944;SDS011;55984;48.790;8.990;2023-04-25T01:59:46;8.53;;;5.03;;
68944;SDS011;55984;48.790;8.990;2023-04-25T02:02:12;11.67;;;5.63;;
68944;SDS011;55984;48.790;8.990;2023-04-25T02:04:40;12.97;;;6.30;;
68944;SDS011;55984;48.790;8.990;2023-04-25T02:07:07;18.93;;;9.47;;
68944;SDS011;55984;48.790;8.990;2023-04-25T02:09:37;15.90;;;7.33;;
68944;SDS011;55984;48.790;8.990;2023-04-25T02:12:03;15.73;;;8.33;;
68944;SDS011;55984;48.790;8.990;2023-04-25T02:14:30;15.63;;;8.30;;
68944;SDS011;55984;48.790;8.990;2023-04-25T02:16:58;12.90;;;6.57;;
68944;SDS011;55984;48.790;8.990;2023-04-25T02:19:25;12.17;;;6.00;;
68944;SDS011;55984;48.790;8.990;2023-04-25T02:21:52;8.90;;;5.63;;
68944;SDS011;55984;48.790;8.990;2023-04-25T02:24:18;12.57;;;6.30;;
68944;SDS011;55984;48.790;8.990;2023-04-25T02:26:52;11.37;;;6.50;;
68944;SDS011;55984;48.790;8.990;2023-04-25T02:29:18;10.80;;;6.50;;
68944;SDS011;55984;48.790;8.990;2023-04-25T02:31:44;16.20;;;6.07;;
68944;SDS011;55984;48.790;8.990;2023-04-25T02:34:12;9.73;;;5.50;;
68944;SDS011;55984;48.790;8.990;2023-04-25T02:36:38;12.60;;;5.67;;
68944;SDS011;55984;48.790;8.990;2023-04-25T02:39:05;8.70;;;5.00;;
68944;SDS011;55984;48.790;8.990;2023-04-25T02:41:31;9.20;;;5.80;;
68944;SDS011;55984;48.790;8.990;2023-04-25T02:44:01;10.70;;;5.90;;
68944;SDS011;55984;48.790;8.990;2023-04-25T02:46:27;11.37;;;5.60;;
68944;SDS011;55984;48.790;8.990;2023-04-25T02:48:53;9.30;;;5.50;;
68944;SDS011;55984;48.790;8.990;2023-04-25T02:51:19;9.00;;;5.30;;
68944;SDS011;55984;48.790;8.990;2023-04-25T02:53:45;9.97;;;5.23;;
68944;SDS011;55984;48.790;8.990;2023-04-25T02:56:11;10.13;;;5.30;;
68944;SDS011;55984;48.790;8.990;2023-04-25T02:58:37;9.60;;;5.00;;
68944;SDS011;55984;48.790;8.990;2023-04-25T03:01:07;10.13;;;5.37;;
68944;SDS011;55984;48.790;8.990;2023-04-25T03:03:33;7.90;;;4.83;;
68944;SDS011;55984;48.790;8.990;2023-04-25T03:06:00;10.07;;;4.90;;
68944;SDS011;55984;48.790;8.990;2023-04-25T03:08:26;10.00;;;5.33;;
68944;SDS011;55984;48.790;8.990;2023-04-25T03:10:57;11.17;;;4.80;;
68944;SDS011;55984;48.790;8.990;2023-04-25T03:13:26;9.33;;;4.93;;
68944;SDS011;55984;48.790;8.990;2023-04-25T03:15:57;8.17;;;4.83;;
68944;SDS011;55984;48.790;8.990;2023-04-25T03:18:23;14.60;;;5.80;;
68944;SDS011;55984;48.790;8.990;2023-04-25T03:20:49;8.50;;;4.90;;
68944;SDS011;55984;48.790;8.990;2023-04-25T03:23:15;8.70;;;4.97;;
68944;SDS011;55984;48.790;8.990;2023-04-25T03:25:41;11.40;;;5.17;;
68944;SDS011;55984;48.790;8.990;2023-04-25T03:28:07;8.07;;;4.73;;
68944;SDS011;55984;48.790;8.990;2023-04-25T03:30:33;9.40;;;5.57;;
68944;SDS011;55984;48.790;8.990;2023-04-25T03:32:59;9.10;;;5.20;;
68944;SDS011;55984;48.790;8.990;2023-04-25T03:35:25;6.90;;;4.20;;
68944;SDS011;55984;48.790;8.990;2023-04-25T03:37:51;14.47;;;4.90;;
68944;SDS011;55984;48.790;8.990;2023-04-25T03:40:17;11.87;;;4.73;;
68944;SDS011;55984;48.790;8.990;2023-04-25T03:42:43;7.83;;;5.30;;
68944;SDS011;55984;48.790;8.990;2023-04-25T03:45:09;9.43;;;4.83;;
68944;SDS011;55984;48.790;8.990;2023-04-25T03:47:35;10.40;;;5.10;;
68944;SDS011;55984;48.790;8.990;2023-04-25T03:50:01;10.27;;;5.23;;
68944;SDS011;55984;48.790;8.990;2023-04-25T03:52:30;11.40;;;5.20;;
68944;SDS011;55984;48.790;8.990;2023-04-25T03:54:55;9.40;;;4.97;;
68944;SDS011;55984;48.790;8.990;2023-04-25T03:57:21;12.33;;;5.00;;
68944;SDS011;55984;48.790;8.990;2023-04-25T03:59:47;9.00;;;5.27;;
68944;SDS011;55984;48.790;8.990;2023-04-25T04:02:13;9.07;;;5.13;;
68944;SDS011;55984;48.790;8.990;2023-04-25T04:04:39;8.30;;;5.30;;
68944;SDS011;55984;48.790;8.990;2023-04-25T04:07:05;8.97;;;5.50;;
68944;SDS011;55984;48.790;8.990;2023-04-25T04:09:31;10.47;;;6.03;;
68944;SDS011;55984;48.790;8.990;2023-04-25T04:11:57;9.03;;;5.53;;
68944;SDS011;55984;48.790;8.990;2023-04-25T04:14:23;12.53;;;6.10;;
68944;SDS011;55984;48.790;8.990;2023-04-25T04:16:50;10.37;;;6.07;;
68944;SDS011;55984;48.790;8.990;2023-04-25T04:19:17;12.40;;;6.40;;
68944;SDS011;55984;48.790;8.990;2023-04-25T04:21:43;18.03;;;6.47;;
68944;SDS011;55984;48.790;8.990;2023-04-25T04:24:09;12.20;;;6.30;;
68944;SDS011;55984;48.790;8.990;2023-04-25T04:26:35;11.77;;;6.10;;
68944;SDS011;55984;48.790;8.990;2023-04-25T04:29:02;13.33;;;6.67;;
68944;SDS011;55984;48.790;8.990;2023-04-25T04:31:28;9.93;;;5.90;;
68944;SDS011;55984;48.790;8.990;2023-04-25T04:33:55;10.70;;;5.97;;
68944;SDS011;55984;48.790;8.990;2023-04-25T04:36:21;9.97;;;5.10;;
68944;SDS011;55984;48.790;8.990;2023-04-25T04:38:48;8.10;;;5.33;;
68944;SDS011;55984;48.790;8.990;2023-04-25T04:41:14;11.47;;;5.63;;
68944;SDS011;55984;48.790;8.990;2023-04-25T04:43:41;10.30;;;5.10;;
68944;SDS011;55984;48.790;8.990;2023-04-25T04:46:08;13.03;;;5.60;;
68944;SDS011;55984;48.790;8.990;2023-04-25T04:48:35;8.73;;;5.33;;
68944;SDS011;55984;48.790;8.990;2023-04-25T04:51:01;10.13;;;4.97;;
68944;SDS011;55984;48.790;8.990;2023-04-25T04:53:27;11.03;;;5.20;;
68944;SDS011;55984;48.790;8.990;2023-04-25T04:55:53;8.60;;;5.70;;
68944;SDS011;55984;48.790;8.990;2023-04-25T04:58:19;8.80;;;5.40;;
68944;SDS011;55984;48.790;8.990;2023-04-25T05:00:45;11.60;;;5.60;;
68944;SDS011;55984;48.790;8.990;2023-04-25T05:03:11;12.67;;;5.97;;
68944;SDS011;55984;48.790;8.990;2023-04-25T05:05:38;11.37;;;5.80;;
68944;SDS011;55984;48.790;8.990;2023-04-25T05:08:05;8.87;;;5.20;;
68944;SDS011;55984;48.790;8.990;2023-04-25T05:10:31;14.27;;;6.13;;
68944;SDS011;55984;48.790;8.990;2023-04-25T05:12:59;9.87;;;5.40;;
68944;SDS011;55984;48.790;8.990;2023-04-25T05:15:24;11.53;;;6.30;;
68944;SDS011;55984;48.790;8.990;2023-04-25T05:17:52;12.37;;;6.57;;
68944;SDS011;55984;48.790;8.990;2023-04-25T05:20:18;12.30;;;6.80;;
68944;SDS011;55984;48.790;8.990;2023-04-25T05:22:44;9.60;;;5.60;;
68944;SDS011;55984;48.790;8.990;2023-04-25T05:25:10;9.10;;;5.20;;
68944;SDS011;55984;48.790;8.990;2023-04-25T05:27:40;11.77;;;6.20;;
68944;SDS011;55984;48.790;8.990;2023-04-25T05:30:07;11.43;;;6.10;;
68944;SDS011;55984;48.790;8.990;2023-04-25T05:32:34;11.30;;;6.03;;
68944;SDS011;55984;48.790;8.990;2023-04-25T05:35:00;11.90;;;5.50;;
68944;SDS011;55984;48.790;8.990;2023-04-25T05:37:27;9.67;;;5.70;;
68944;SDS011;55984;48.790;8.990;2023-04-25T05:39:56;11.80;;;6.30;;
68944;SDS011;55984;48.790;8.990;2023-04-25T05:42:21;9.60;;;5.73;;
68944;SDS011;55984;48.790;8.990;2023-04-25T05:44:47;9.10;;;6.00;;
68944;SDS011;55984;48.790;8.990;2023-04-25T05:47:13;10.70;;;5.90;;
68944;SDS011;55984;48.790;8.990;2023-04-25T05:49:40;12.00;;;6.40;;
68944;SDS011;55984;48.790;8.990;2023-04-25T05:52:06;7.30;;;4.50;;
68944;SDS011;55984;48.790;8.990;2023-04-25T05:54:32;7.80;;;5.30;;
68944;SDS011;55984;48.790;8.990;2023-04-25T05:56:59;10.40;;;5.60;;
68944;SDS011;55984;48.790;8.990;2023-04-25T05:59:25;9.73;;;5.43;;
68944;SDS011;55984;48.790;8.990;2023-04-25T06:01:51;8.40;;;5.20;;
68944;SDS011;55984;48.790;8.990;2023-04-25T06:04:17;7.93;;;5.30;;
68944;SDS011;55984;48.790;8.990;2023-04-25T06:06:43;8.83;;;4.83;;
68944;SDS011;55984;48.790;8.990;2023-04-25T06:09:09;10.70;;;5.30;;
68944;SDS011;55984;48.790;8.990;2023-04-25T06:11:35;8.03;;;4.90;;
68944;SDS011;55984;48.790;8.990;2023-04-25T06:14:01;7.97;;;5.63;;
68944;SDS011;55984;48.790;8.990;2023-04-25T06:16:27;9.57;;;5.10;;
68944;SDS011;55984;48.790;8.990;2023-04-25T06:18:53;10.20;;;5.60;;
68944;SDS011;55984;48.790;8.990;2023-04-25T06:21:19;8.77;;;5.37;;
68944;SDS011;55984;48.790;8.990;2023-04-25T06:23:45;8.80;;;5.50;;
68944;SDS011;55984;48.790;8.990;2023-04-25T06:26:11;9.97;;;5.70;;
68944;SDS011;55984;48.790;8.990;2023-04-25T06:28:37;8.53;;;5.07;;
68944;SDS011;55984;48.790;8.990;2023-04-25T06:31:03;10.70;;;6.00;;
68944;SDS011;55984;48.790;8.990;2023-04-25T06:33:29;9.90;;;5.37;;
68944;SDS011;55984;48.790;8.990;2023-04-25T06:35:55;10.10;;;4.90;;
68944;SDS011;55984;48.790;8.990;2023-04-25T06:38:21;9.10;;;5.37;;
68944;SDS011;55984;48.790;8.990;2023-04-25T06:40:47;7.70;;;5.10;;
68944;SDS011;55984;48.790;8.990;2023-04-25T06:43:13;10.40;;;5.80;;
68944;SDS011;55984;48.790;8.990;2023-04-25T06:45:39;19.00;;;6.53;;
68944;SDS011;55984;48.790;8.990;2023-04-25T06:48:06;9.80;;;5.90;;
68944;SDS011;55984;48.790;8.990;2023-04-25T06:50:32;12.00;;;5.73;;
68944;SDS011;55984;48.790;8.990;2023-04-25T06:52:59;11.50;;;5.53;;
68944;SDS011;55984;48.790;8.990;2023-04-25T06:55:26;11.17;;;6.53;;
68944;SDS011;55984;48.790;8.990;2023-04-25T06:57:52;12.20;;;7.37;;
68944;SDS011;55984;48.790;8.990;2023-04-25T07:00:19;12.93;;;7.17;;
68944;SDS011;55984;48.790;8.990;2023-04-25T07:02:46;13.87;;;6.90;;
68944;SDS011;55984;48.790;8.990;2023-04-25T07:05:12;14.00;;;7.40;;
68944;SDS011;55984;48.790;8.990;2023-04-25T07:07:38;13.67;;;7.40;;
68944;SDS011;55984;48.790;8.990;2023-04-25T07:10:04;11.07;;;6.93;;
68944;SDS011;55984;48.790;8.990;2023-04-25T07:12:30;13.27;;;7.30;;
68944;SDS011;55984;48.790;8.990;2023-04-25T07:14:56;15.43;;;7.33;;
68944;SDS011;55984;48.790;8.990;2023-04-25T07:17:22;16.03;;;8.10;;
68944;SDS011;55984;48.790;8.990;2023-04-25T07:19:48;14.00;;;7.60;;
68944;SDS011;55984;48.790;8.990;2023-04-25T07:22:14;17.53;;;8.00;;
68944;SDS011;55984;48.790;8.990;2023-04-25T07:24:42;16.70;;;7.73;;
68944;SDS011;55984;48.790;8.990;2023-04-25T07:27:12;14.90;;;7.30;;
68944;SDS011;55984;48.790;8.990;2023-04-25T07:29:38;15.00;;;7.90;;
68944;SDS011;55984;48.790;8.990;2023-04-25T07:32:04;16.20;;;8.00;;
68944;SDS011;55984;48.790;8.990;2023-04-25T07:34:30;15.70;;;7.47;;
68944;SDS011;55984;48.790;8.990;2023-04-25T07:36:57;13.93;;;7.47;;
68944;SDS011;55984;48.790;8.990;2023-04-25T07:39:24;16.03;;;8.37;;
68944;SDS011;55984;48.790;8.990;2023-04-25T07:41:51;13.23;;;7.70;;
68944;SDS011;55984;48.790;8.990;2023-04-25T07:44:18;15.83;;;7.87;;
68944;SDS011;55984;48.790;8.990;2023-04-25T07:46:44;16.40;;;8.13;;
68944;SDS011;55984;48.790;8.990;2023-04-25T07:49:10;19.07;;;7.60;;
68944;SDS011;55984;48.790;8.990;2023-04-25T07:51:40;15.63;;;8.00;;
68944;SDS011;55984;48.790;8.990;2023-04-25T07:54:08;18.50;;;7.20;;
68944;SDS011;55984;48.790;8.990;2023-04-25T07:56:35;11.53;;;6.70;;
68944;SDS011;55984;48.790;8.990;2023-04-25T07:59:02;14.87;;;7.87;;
68944;SDS011;55984;48.790;8.990;2023-04-25T08:01:28;14.27;;;7.40;;
68944;SDS011;55984;48.790;8.990;2023-04-25T08:03:54;14.47;;;7.63;;
68944;SDS011;55984;48.790;8.990;2023-04-25T08:06:24;12.70;;;7.10;;
68944;SDS011;55984;48.790;8.990;2023-04-25T08:08:50;16.37;;;7.27;;
68944;SDS011;55984;48.790;8.990;2023-04-25T08:11:20;13.80;;;6.83;;
68944;SDS011;55984;48.790;8.990;2023-04-25T08:13:46;14.83;;;7.70;;
68944;SDS011;55984;48.790;8.990;2023-04-25T08:16:14;14.00;;;7.73;;
68944;SDS011;55984;48.790;8.990;2023-04-25T08:18:41;17.70;;;6.90;;
68944;SDS011;55984;48.790;8.990;2023-04-25T08:21:10;14.27;;;7.50;;
68944;SDS011;55984;48.790;8.990;2023-04-25T08:23:37;15.40;;;7.73;;
68944;SDS011;55984;48.790;8.990;2023-04-25T08:26:03;21.40;;;9.30;;
68944;SDS011;55984;48.790;8.990;2023-04-25T08:28:38;14.60;;;7.73;;
68944;SDS011;55984;48.790;8.990;2023-04-25T08:31:04;19.73;;;8.40;;
68944;SDS011;55984;48.790;8.990;2023-04-25T08:33:30;18.67;;;8.30;;
68944;SDS011;55984;48.790;8.990;2023-04-25T08:35:57;14.37;;;7.80;;
68944;SDS011;55984;48.790;8.990;2023-04-25T08:38:24;16.30;;;8.33;;
68944;SDS011;55984;48.790;8.990;2023-04-25T08:40:56;17.50;;;8.00;;
68944;SDS011;55984;48.790;8.990;2023-04-25T08:43:27;17.97;;;9.40;;
68944;SDS011;55984;48.790;8.990;2023-04-25T08:45:59;14.67;;;8.30;;
68944;SDS011;55984;48.790;8.990;2023-04-25T08:48:29;17.10;;;9.10;;
68944;SDS011;55984;48.790;8.990;2023-04-25T08:50:59;18.80;;;9.60;;
68944;SDS011;55984;48.790;8.990;2023-04-25T08:53:29;18.77;;;9.60;;
68944;SDS011;55984;48.790;8.990;2023-04-25T08:55:57;19.00;;;8.90;;
68944;SDS011;55984;48.790;8.990;2023-04-25T08:58:24;15.03;;;8.60;;
68944;SDS011;55984;48.790;8.990;2023-04-25T09:00:50;14.93;;;8.50;;
68944;SDS011;55984;48.790;8.990;2023-04-25T09:03:17;17.60;;;8.40;;
68944;SDS011;55984;48.790;8.990;2023-04-25T09:05:44;29.87;;;9.17;;
68944;SDS011;55984;48.790;8.990;2023-04-25T09:08:10;13.90;;;8.20;;
68944;SDS011;55984;48.790;8.990;2023-04-25T09:10:36;18.10;;;9.27;;
68944;SDS011;55984;48.790;8.990;2023-04-25T09:13:07;21.23;;;9.30;;
68944;SDS011;55984;48.790;8.990;2023-04-25T09:15:48;17.73;;;9.23;;
68944;SDS011;55984;48.790;8.990;2023-04-25T09:18:25;19.27;;;8.60;;
68944;SDS011;55984;48.790;8.990;2023-04-25T09:20:56;18.20;;;8.73;;
68944;SDS011;55984;48.790;8.990;2023-04-25T09:23:31;16.33;;;8.00;;
68944;SDS011;55984;48.790;8.990;2023-04-25T09:26:18;20.70;;;7.53;;
68944;SDS011;55984;48.790;8.990;2023-04-25T09:28:45;27.00;;;7.30;;
68944;SDS011;55984;48.790;8.990;2023-04-25T09:31:21;20.07;;;8.10;;
68944;SDS011;55984;48.790;8.990;2023-04-25T09:33:49;10.93;;;6.17;;
68944;SDS011;55984;48.790;8.990;2023-04-25T09:36:15;12.10;;;6.00;;
68944;SDS011;55984;48.790;8.990;2023-04-25T09:38:42;11.17;;;5.77;;
68944;SDS011;55984;48.790;8.990;2023-04-25T09:41:12;7.60;;;4.20;;
68944;SDS011;55984;48.790;8.990;2023-04-25T09:43:38;10.10;;;3.50;;
68944;SDS011;55984;48.790;8.990;2023-04-25T09:46:08;6.07;;;3.10;;
68944;SDS011;55984;48.790;8.990;2023-04-25T09:48:36;7.23;;;2.73;;
68944;SDS011;55984;48.790;8.990;2023-04-25T09:53:29;6.07;;;2.57;;
68944;SDS011;55984;48.790;8.990;2023-04-25T09:55:55;7.20;;;2.90;;
68944;SDS011;55984;48.790;8.990;2023-04-25T09:58:21;14.60;;;2.70;;
68944;SDS011;55984;48.790;8.990;2023-04-25T10:00:51;5.80;;;2.50;;
68944;SDS011;55984;48.790;8.990;2023-04-25T10:03:17;4.80;;;2.83;;
68944;SDS011;55984;48.790;8.990;2023-04-25T10:05:46;5.13;;;2.80;;
68944;SDS011;55984;48.790;8.990;2023-04-25T10:08:14;5.40;;;2.87;;
68944;SDS011;55984;48.790;8.990;2023-04-25T10:10:41;6.77;;;2.70;;
68944;SDS011;55984;48.790;8.990;2023-04-25T10:13:08;5.07;;;2.40;;
68944;SDS011;55984;48.790;8.990;2023-04-25T10:15:34;3.90;;;2.40;;
68944;SDS011;55984;48.790;8.990;2023-04-25T10:18:01;5.07;;;2.70;;
68944;SDS011;55984;48.790;8.990;2023-04-25T10:20:28;6.50;;;2.63;;
68944;SDS011;55984;48.790;8.990;2023-04-25T10:22:55;3.83;;;2.47;;
68944;SDS011;55984;48.790;8.990;2023-04-25T10:25:29;6.17;;;2.23;;
68944;SDS011;55984;48.790;8.990;2023-04-25T10:27:56;3.83;;;2.17;;
68944;SDS011;55984;48.790;8.990;2023-04-25T10:30:22;3.37;;;2.17;;
68944;SDS011;55984;48.790;8.990;2023-04-25T10:32:48;5.03;;;2.70;;
68944;SDS011;55984;48.790;8.990;2023-04-25T10:35:16;4.40;;;2.17;;
68944;SDS011;55984;48.790;8.990;2023-04-25T10:38:04;4.63;;;2.30;;
68944;SDS011;55984;48.790;8.990;2023-04-25T10:40:34;3.30;;;2.30;;
68944;SDS011;55984;48.790;8.990;2023-04-25T10:45:57;3.73;;;2.33;;
68944;SDS011;55984;48.790;8.990;2023-04-25T10:48:29;8.00;;;4.23;;
68944;SDS011;55984;48.790;8.990;2023-04-25T10:51:08;20.60;;;8.50;;
68944;SDS011;55984;48.790;8.990;2023-04-25T10:53:35;15.70;;;8.60;;
68944;SDS011;55984;48.790;8.990;2023-04-25T10:56:09;25.93;;;10.83;;
68944;SDS011;55984;48.790;8.990;2023-04-25T10:58:43;21.83;;;7.90;;
68944;SDS011;55984;48.790;8.990;2023-04-25T11:01:09;12.60;;;6.87;;
68944;SDS011;55984;48.790;8.990;2023-04-25T11:03:38;24.43;;;12.97;;
68944;SDS011;55984;48.790;8.990;2023-04-25T11:06:22;14.37;;;8.23;;
68944;SDS011;55984;48.790;8.990;2023-04-25T11:08:54;17.87;;;9.93;;
68944;SDS011;55984;48.790;8.990;2023-04-25T11:11:20;17.97;;;7.03;;
68944;SDS011;55984;48.790;8.990;2023-04-25T11:13:47;17.77;;;6.07;;
68944;SDS011;55984;48.790;8.990;2023-04-25T11:16:15;14.07;;;6.67;;
68944;SDS011;55984;48.790;8.990;2023-04-25T11:18:44;9.40;;;5.40;;
68944;SDS011;55984;48.790;8.990;2023-04-25T11:21:11;11.90;;;6.77;;
68944;SDS011;55984;48.790;8.990;2023-04-25T11:23:37;8.70;;;5.10;;
68944;SDS011;55984;48.790;8.990;2023-04-25T11:26:03;10.13;;;5.60;;
68944;SDS011;55984;48.790;8.990;2023-04-25T11:28:29;10.10;;;4.60;;
68944;SDS011;55984;48.790;8.990;2023-04-25T11:30:55;8.20;;;4.63;;
68944;SDS011;55984;48.790;8.990;2023-04-25T11:33:25;8.80;;;4.87;;
68944;SDS011;55984;48.790;8.990;2023-04-25T11:35:54;19.27;;;4.63;;
68944;SDS011;55984;48.790;8.990;2023-04-25T11:38:22;8.23;;;4.47;;
68944;SDS011;55984;48.790;8.990;2023-04-25T11:40:51;12.10;;;4.63;;
68944;SDS011;55984;48.790;8.990;2023-04-25T11:43:20;8.60;;;4.30;;
68944;SDS011;55984;48.790;8.990;2023-04-25T11:45:49;9.33;;;4.50;;
68944;SDS011;55984;48.790;8.990;2023-04-25T11:48:16;12.17;;;4.50;;
68944;SDS011;55984;48.790;8.990;2023-04-25T11:50:43;11.80;;;4.60;;
68944;SDS011;55984;48.790;8.990;2023-04-25T11:53:09;7.43;;;4.60;;
68944;SDS011;55984;48.790;8.990;2023-04-25T11:55:35;12.93;;;5.13;;
68944;SDS011;55984;48.790;8.990;2023-04-25T11:58:02;25.43;;;7.47;;
68944;SDS011;55984;48.790;8.990;2023-04-25T12:00:30;15.00;;;6.70;;
68944;SDS011;55984;48.790;8.990;2023-04-25T12:02:57;15.13;;;7.87;;
68944;SDS011;55984;48.790;8.990;2023-04-25T12:05:24;16.77;;;7.67;;
68944;SDS011;55984;48.790;8.990;2023-04-25T12:07:52;14.30;;;7.37;;
68944;SDS011;55984;48.790;8.990;2023-04-25T12:10:18;17.23;;;8.30;;
68944;SDS011;55984;48.790;8.990;2023-04-25T12:12:46;14.80;;;7.20;;
68944;SDS011;55984;48.790;8.990;2023-04-25T12:15:17;16.43;;;7.50;;
68944;SDS011;55984;48.790;8.990;2023-04-25T12:17:45;20.00;;;7.20;;
68944;SDS011;55984;48.790;8.990;2023-04-25T12:20:26;14.13;;;6.73;;
68944;SDS011;55984;48.790;8.990;2023-04-25T12:22:52;11.40;;;5.70;;
68944;SDS011;55984;48.790;8.990;2023-04-25T12:33:21;12.50;;;7.00;;
68944;SDS011;55984;48.790;8.990;2023-04-25T12:35:48;13.90;;;6.70;;
68944;SDS011;55984;48.790;8.990;2023-04-25T12:38:24;12.90;;;6.73;;
68944;SDS011;55984;48.790;8.990;2023-04-25T12:40:51;12.60;;;7.50;;
68944;SDS011;55984;48.790;8.990;2023-04-25T12:43:20;12.90;;;6.50;;
68944;SDS011;55984;48.790;8.990;2023-04-25T12:45:50;15.27;;;7.30;;
68944;SDS011;55984;48.790;8.990;2023-04-25T12:48:18;13.40;;;7.17;;
68944;SDS011;55984;48.790;8.990;2023-04-25T12:50:46;10.30;;;6.60;;
68944;SDS011;55984;48.790;8.990;2023-04-25T12:53:20;19.80;;;7.90;;
68944;SDS011;55984;48.790;8.990;2023-04-25T12:55:49;13.67;;;7.00;;
68944;SDS011;55984;48.790;8.990;2023-04-25T12:58:17;29.23;;;7.20;;
68944;SDS011;55984;48.790;8.990;2023-04-25T13:00:44;12.70;;;7.40;;
68944;SDS011;55984;48.790;8.990;2023-04-25T13:03:11;11.70;;;6.50;;
68944;SDS011;55984;48.790;8.990;2023-04-25T13:05:39;12.97;;;6.80;;
68944;SDS011;55984;48.790;8.990;2023-04-25T13:08:06;32.27;;;6.53;;
68944;SDS011;55984;48.790;8.990;2023-04-25T13:10:32;13.67;;;6.87;;
68944;SDS011;55984;48.790;8.990;2023-04-25T13:12:58;12.60;;;7.70;;
68944;SDS011;55984;48.790;8.990;2023-04-25T13:15:25;11.17;;;6.63;;
68944;SDS011;55984;48.790;8.990;2023-04-25T13:17:52;12.17;;;7.20;;
68944;SDS011;55984;48.790;8.990;2023-04-25T13:20:18;12.50;;;7.33;;
68944;SDS011;55984;48.790;8.990;2023-04-25T13:22:47;13.40;;;7.83;;
68944;SDS011;55984;48.790;8.990;2023-04-25T13:25:13;23.83;;;8.83;;
68944;SDS011;55984;48.790;8.990;2023-04-25T13:27:40;15.70;;;7.23;;
68944;SDS011;55984;48.790;8.990;2023-04-25T13:30:06;16.70;;;8.30;;
68944;SDS011;55984;48.790;8.990;2023-04-25T13:32:36;17.13;;;8.33;;
68944;SDS011;55984;48.790;8.990;2023-04-25T13:35:03;15.97;;;8.50;;
68944;SDS011;55984;48.790;8.990;2023-04-25T13:37:37;16.70;;;9.20;;
68944;SDS011;55984;48.790;8.990;2023-04-25T13:40:08;21.20;;;9.70;;
68944;SDS011;55984;48.790;8.990;2023-04-25T13:42:36;15.17;;;8.70;;
68944;SDS011;55984;48.790;8.990;2023-04-25T13:45:03;16.57;;;7.97;;
68944;SDS011;55984;48.790;8.990;2023-04-25T13:47:44;15.50;;;8.57;;
68944;SDS011;55984;48.790;8.990;2023-04-25T13:50:10;12.30;;;7.70;;
68944;SDS011;55984;48.790;8.990;2023-04-25T13:52:36;10.80;;;7.00;;
68944;SDS011;55984;48.790;8.990;2023-04-25T13:55:03;9.83;;;6.30;;
68944;SDS011;55984;48.790;8.990;2023-04-25T13:57:31;10.87;;;6.60;;
68944;SDS011;55984;48.790;8.990;2023-04-25T13:59:57;11.37;;;6.23;;
68944;SDS011;55984;48.790;8.990;2023-04-25T14:02:24;10.67;;;6.33;;
68944;SDS011;55984;48.790;8.990;2023-04-25T14:04:50;9.83;;;6.07;;
68944;SDS011;55984;48.790;8.990;2023-04-25T14:07:16;14.13;;;7.03;;
68944;SDS011;55984;48.790;8.990;2023-04-25T14:09:42;16.90;;;7.00;;
68944;SDS011;55984;48.790;8.990;2023-04-25T14:12:09;10.50;;;6.20;;
68944;SDS011;55984;48.790;8.990;2023-04-25T14:14:36;10.90;;;6.70;;
68944;SDS011;55984;48.790;8.990;2023-04-25T14:17:03;10.60;;;6.40;;
68944;SDS011;55984;48.790;8.990;2023-04-25T14:19:30;11.30;;;6.43;;
68944;SDS011;55984;48.790;8.990;2023-04-25T14:21:56;11.07;;;6.13;;
68944;SDS011;55984;48.790;8.990;2023-04-25T14:24:22;11.23;;;6.30;;
68944;SDS011;55984;48.790;8.990;2023-04-25T14:26:48;15.90;;;5.53;;
68944;SDS011;55984;48.790;8.990;2023-04-25T14:29:15;9.87;;;5.50;;
68944;SDS011;55984;48.790;8.990;2023-04-25T14:31:41;9.63;;;6.07;;
68944;SDS011;55984;48.790;8.990;2023-04-25T14:34:07;10.23;;;6.40;;
68944;SDS011;55984;48.790;8.990;2023-04-25T14:36:35;9.97;;;5.67;;
68944;SDS011;55984;48.790;8.990;2023-04-25T14:39:02;7.73;;;5.00;;
68944;SDS011;55984;48.790;8.990;2023-04-25T14:41:30;8.73;;;5.17;;
68944;SDS011;55984;48.790;8.990;2023-04-25T14:43:56;10.43;;;5.40;;
68944;SDS011;55984;48.790;8.990;2023-04-25T14:46:22;8.50;;;5.30;;
68944;SDS011;55984;48.790;8.990;2023-04-25T14:48:49;7.50;;;4.63;;
68944;SDS011;55984;48.790;8.990;2023-04-25T14:51:17;7.10;;;5.10;;
68944;SDS011;55984;48.790;8.990;2023-04-25T14:53:46;8.80;;;4.80;;
68944;SDS011;55984;48.790;8.990;2023-04-25T14:56:12;10.00;;;4.70;;
68944;SDS011;55984;48.790;8.990;2023-04-25T14:58:39;7.00;;;4.60;;
68944;SDS011;55984;48.790;8.990;2023-04-25T15:01:05;7.60;;;5.23;;